sensor_id;sensor_type;location;lat;lon;timestamp;temperature;humidity
14529;DHT22;7351;51.194;4.098;2022-07-29T00:00:51;20.30;99.90
14529;DHT22;7351;51.194;4.098;2022-07-29T00:03:18;20.30;99.90
14529;DHT22;7351;51.194;4.098;2022-07-29T00:05:45;20.40;99.90
14529;DHT22;7351;51.194;4.098;2022-07-29T00:08:12;20.40;99.90
14529;DHT22;7351;51.194;4.098;2022-07-29T00:10:39;20.30;99.90
14529;DHT22;7351;51.194;4.098;2022-07-29T00:13:07;20.30;99.90
14529;DHT22;7351;51.194;4.098;2022-07-29T00:15:34;20.30;99.90
14529;DHT22;7351;51.194;4.098;2022-07-29T00:18:01;20.20;99.90
14529;DHT22;7351;51.194;4.098;2022-07-29T00:20:28;20.20;99.90
14529;DHT22;7351;51.194;4.098;2022-07-29T00:22:55;20.10;99.90
14529;DHT22;7351;51.194;4.098;2022-07-29T00:25:22;20.10;99.90
14529;DHT22;7351;51.194;4.098;2022-07-29T00:27:49;20.00;99.90
14529;DHT22;7351;51.194;4.098;2022-07-29T00:30:17;19.80;99.90
14529;DHT22;7351;51.194;4.098;2022-07-29T00:32:44;19.70;99.90
14529;DHT22;7351;51.194;4.098;2022-07-29T00:35:11;19.60;99.90
14529;DHT22;7351;51.194;4.098;2022-07-29T00:37:55;19.50;99.90
14529;DHT22;7351;51.194;4.098;2022-07-29T00:40:22;19.50;99.90
14529;DHT22;7351;51.194;4.098;2022-07-29T00:42:51;19.50;99.90
14529;DHT22;7351;51.194;4.098;2022-07-29T00:45:20;19.50;99.90
14529;DHT22;7351;51.194;4.098;2022-07-29T00:47:48;19.50;99.90
14529;DHT22;7351;51.194;4.098;2022-07-29T00:50:16;19.40;99.90
14529;DHT22;7351;51.194;4.098;2022-07-29T00:52:43;19.30;99.90
14529;DHT22;7351;51.194;4.098;2022-07-29T00:55:11;19.30;99.90
14529;DHT22;7351;51.194;4.098;2022-07-29T00:57:39;19.40;99.90
14529;DHT22;7351;51.194;4.098;2022-07-29T01:00:09;19.50;99.90
14529;DHT22;7351;51.194;4.098;2022-07-29T01:02:38;19.50;99.90
14529;DHT22;7351;51.194;4.098;2022-07-29T01:05:06;19.50;99.90
14529;DHT22;7351;51.194;4.098;2022-07-29T01:07:34;19.50;99.90
14529;DHT22;7351;51.194;4.098;2022-07-29T01:10:02;19.50;99.90
14529;DHT22;7351;51.194;4.098;2022-07-29T01:12:30;19.50;99.90
14529;DHT22;7351;51.194;4.098;2022-07-29T01:15:00;19.50;99.90
14529;DHT22;7351;51.194;4.098;2022-07-29T01:17:31;19.50;99.90
14529;DHT22;7351;51.194;4.098;2022-07-29T01:20:03;19.50;99.90
14529;DHT22;7351;51.194;4.098;2022-07-29T01:22:42;19.40;99.90
14529;DHT22;7351;51.194;4.098;2022-07-29T01:28:45;19.40;99.90
14529;DHT22;7351;51.194;4.098;2022-07-29T01:31:16;19.40;99.90
14529;DHT22;7351;51.194;4.098;2022-07-29T01:33:49;19.50;99.90
14529;DHT22;7351;51.194;4.098;2022-07-29T01:36:22;19.50;99.90
14529;DHT22;7351;51.194;4.098;2022-07-29T01:38:54;19.50;99.90
14529;DHT22;7351;51.194;4.098;2022-07-29T01:41:26;19.50;99.90
14529;DHT22;7351;51.194;4.098;2022-07-29T01:44:01;19.30;99.90
14529;DHT22;7351;51.194;4.098;2022-07-29T01:46:33;19.20;99.90
14529;DHT22;7351;51.194;4.098;2022-07-29T01:49:08;19.40;99.90
14529;DHT22;7351;51.194;4.098;2022-07-29T01:51:41;19.40;99.90
14529;DHT22;7351;51.194;4.098;2022-07-29T01:54:14;19.50;99.90
14529;DHT22;7351;51.194;4.098;2022-07-29T01:56:43;19.60;99.90
14529;DHT22;7351;51.194;4.098;2022-07-29T01:59:13;19.60;99.90
14529;DHT22;7351;51.194;4.098;2022-07-29T02:01:44;19.40;99.90
14529;DHT22;7351;51.194;4.098;2022-07-29T02:04:13;19.40;99.90
14529;DHT22;7351;51.194;4.098;2022-07-29T02:06:42;19.40;99.90
14529;DHT22;7351;51.194;4.098;2022-07-29T02:09:12;19.50;99.90
14529;DHT22;7351;51.194;4.098;2022-07-29T02:11:43;19.50;99.90
14529;DHT22;7351;51.194;4.098;2022-07-29T02:14:14;19.50;99.90
14529;DHT22;7351;51.194;4.098;2022-07-29T02:16:42;19.50;99.90
14529;DHT22;7351;51.194;4.098;2022-07-29T02:19:10;19.40;99.90
14529;DHT22;7351;51.194;4.098;2022-07-29T02:21:39;19.30;99.90
14529;DHT22;7351;51.194;4.098;2022-07-29T02:24:10;19.30;99.90
14529;DHT22;7351;51.194;4.098;2022-07-29T02:26:39;19.20;99.90
14529;DHT22;7351;51.194;4.098;2022-07-29T02:29:08;19.10;99.90
14529;DHT22;7351;51.194;4.098;2022-07-29T02:31:38;19.10;99.90
14529;DHT22;7351;51.194;4.098;2022-07-29T02:34:08;19.00;99.90
14529;DHT22;7351;51.194;4.098;2022-07-29T02:36:35;19.00;99.90
14529;DHT22;7351;51.194;4.098;2022-07-29T02:39:03;19.10;99.90
14529;DHT22;7351;51.194;4.098;2022-07-29T02:41:37;19.20;99.90
14529;DHT22;7351;51.194;4.098;2022-07-29T02:44:10;19.10;99.90
14529;DHT22;7351;51.194;4.098;2022-07-29T02:46:46;19.10;99.90
14529;DHT22;7351;51.194;4.098;2022-07-29T02:49:18;19.00;99.90
14529;DHT22;7351;51.194;4.098;2022-07-29T02:51:54;18.90;99.90
14529;DHT22;7351;51.194;4.098;2022-07-29T02:54:36;18.90;99.90
14529;DHT22;7351;51.194;4.098;2022-07-29T02:57:09;18.90;99.90
14529;DHT22;7351;51.194;4.098;2022-07-29T02:59:41;18.90;99.90
14529;DHT22;7351;51.194;4.098;2022-07-29T03:02:11;18.80;99.90
14529;DHT22;7351;51.194;4.098;2022-07-29T03:04:41;18.80;99.90
14529;DHT22;7351;51.194;4.098;2022-07-29T03:07:11;18.80;99.90
14529;DHT22;7351;51.194;4.098;2022-07-29T03:09:40;18.80;99.90
14529;DHT22;7351;51.194;4.098;2022-07-29T03:12:08;18.90;99.90
14529;DHT22;7351;51.194;4.098;2022-07-29T03:14:37;18.80;99.90
14529;DHT22;7351;51.194;4.098;2022-07-29T03:17:05;18.70;99.90
14529;DHT22;7351;51.194;4.098;2022-07-29T03:19:33;18.60;99.90
14529;DHT22;7351;51.194;4.098;2022-07-29T03:22:01;18.60;99.90
14529;DHT22;7351;51.194;4.098;2022-07-29T03:24:29;18.70;99.90
14529;DHT22;7351;51.194;4.098;2022-07-29T03:26:57;18.70;99.90
14529;DHT22;7351;51.194;4.098;2022-07-29T03:29:24;18.70;99.90
14529;DHT22;7351;51.194;4.098;2022-07-29T03:31:52;18.80;99.90
14529;DHT22;7351;51.194;4.098;2022-07-29T03:34:19;18.80;99.90
14529;DHT22;7351;51.194;4.098;2022-07-29T03:36:48;18.80;99.90
14529;DHT22;7351;51.194;4.098;2022-07-29T03:39:18;18.80;99.90
14529;DHT22;7351;51.194;4.098;2022-07-29T03:41:48;18.90;99.90
14529;DHT22;7351;51.194;4.098;2022-07-29T03:44:18;18.90;99.90
14529;DHT22;7351;51.194;4.098;2022-07-29T03:46:46;18.90;99.90
14529;DHT22;7351;51.194;4.098;2022-07-29T03:49:16;19.00;99.90
14529;DHT22;7351;51.194;4.098;2022-07-29T03:51:43;18.90;99.90
14529;DHT22;7351;51.194;4.098;2022-07-29T03:54:12;18.90;99.90
14529;DHT22;7351;51.194;4.098;2022-07-29T03:56:42;18.90;99.90
14529;DHT22;7351;51.194;4.098;2022-07-29T03:59:13;18.90;99.90
14529;DHT22;7351;51.194;4.098;2022-07-29T04:01:41;18.90;99.90
14529;DHT22;7351;51.194;4.098;2022-07-29T04:04:08;18.80;99.90
14529;DHT22;7351;51.194;4.098;2022-07-29T04:06:39;18.60;99.90
14529;DHT22;7351;51.194;4.098;2022-07-29T04:09:07;18.50;99.90
14529;DHT22;7351;51.194;4.098;2022-07-29T04:11:36;18.40;99.90
14529;DHT22;7351;51.194;4.098;2022-07-29T04:14:03;18.40;99.90
14529;DHT22;7351;51.194;4.098;2022-07-29T04:16:30;18.40;99.90
14529;DHT22;7351;51.194;4.098;2022-07-29T04:18:58;18.40;99.90
14529;DHT22;7351;51.194;4.098;2022-07-29T04:21:25;18.40;99.90
14529;DHT22;7351;51.194;4.098;2022-07-29T04:23:52;18.40;99.90
14529;DHT22;7351;51.194;4.098;2022-07-29T04:26:19;18.40;99.90
14529;DHT22;7351;51.194;4.098;2022-07-29T04:28:48;18.30;99.90
14529;DHT22;7351;51.194;4.098;2022-07-29T04:31:15;18.30;99.90
14529;DHT22;7351;51.194;4.098;2022-07-29T04:33:41;18.20;99.90
14529;DHT22;7351;51.194;4.098;2022-07-29T04:36:08;18.20;99.90
14529;DHT22;7351;51.194;4.098;2022-07-29T04:38:37;18.20;99.90
14529;DHT22;7351;51.194;4.098;2022-07-29T04:41:04;18.30;99.90
14529;DHT22;7351;51.194;4.098;2022-07-29T04:43:32;18.30;99.90
14529;DHT22;7351;51.194;4.098;2022-07-29T04:46:00;18.20;99.90
14529;DHT22;7351;51.194;4.098;2022-07-29T04:48:27;18.10;99.90
14529;DHT22;7351;51.194;4.098;2022-07-29T04:50:55;18.00;99.90
14529;DHT22;7351;51.194;4.098;2022-07-29T04:53:22;18.00;99.90
14529;DHT22;7351;51.194;4.098;2022-07-29T04:55:49;18.10;99.90
14529;DHT22;7351;51.194;4.098;2022-07-29T04:58:16;18.10;99.90
14529;DHT22;7351;51.194;4.098;2022-07-29T05:00:43;18.00;99.90
14529;DHT22;7351;51.194;4.098;2022-07-29T05:03:12;18.00;99.90
14529;DHT22;7351;51.194;4.098;2022-07-29T05:05:39;17.90;99.90
14529;DHT22;7351;51.194;4.098;2022-07-29T05:08:06;18.00;99.90
14529;DHT22;7351;51.194;4.098;2022-07-29T05:10:33;18.10;99.90
14529;DHT22;7351;51.194;4.098;2022-07-29T05:13:04;18.10;99.90
14529;DHT22;7351;51.194;4.098;2022-07-29T05:15:31;18.10;99.90
14529;DHT22;7351;51.194;4.098;2022-07-29T05:17:58;18.00;99.90
14529;DHT22;7351;51.194;4.098;2022-07-29T05:20:26;18.00;99.90
14529;DHT22;7351;51.194;4.098;2022-07-29T05:22:54;17.80;99.90
14529;DHT22;7351;51.194;4.098;2022-07-29T05:25:21;17.80;99.90
14529;DHT22;7351;51.194;4.098;2022-07-29T05:27:48;17.80;99.90
14529;DHT22;7351;51.194;4.098;2022-07-29T05:30:16;17.90;99.90
14529;DHT22;7351;51.194;4.098;2022-07-29T05:32:43;17.90;99.90
14529;DHT22;7351;51.194;4.098;2022-07-29T05:35:10;18.10;99.90
14529;DHT22;7351;51.194;4.098;2022-07-29T05:37:39;18.10;99.90
14529;DHT22;7351;51.194;4.098;2022-07-29T05:40:06;18.20;99.90
14529;DHT22;7351;51.194;4.098;2022-07-29T05:42:34;18.20;99.90
14529;DHT22;7351;51.194;4.098;2022-07-29T05:45:01;18.10;99.90
14529;DHT22;7351;51.194;4.098;2022-07-29T05:47:28;18.20;99.90
14529;DHT22;7351;51.194;4.098;2022-07-29T05:49:56;18.30;99.90
14529;DHT22;7351;51.194;4.098;2022-07-29T05:52:23;18.40;99.90
14529;DHT22;7351;51.194;4.098;2022-07-29T05:54:51;18.40;99.90
14529;DHT22;7351;51.194;4.098;2022-07-29T05:57:19;18.40;99.90
14529;DHT22;7351;51.194;4.098;2022-07-29T05:59:46;18.50;99.90
14529;DHT22;7351;51.194;4.098;2022-07-29T06:02:14;18.60;99.90
14529;DHT22;7351;51.194;4.098;2022-07-29T06:04:41;18.80;99.90
14529;DHT22;7351;51.194;4.098;2022-07-29T06:07:08;18.90;99.90
14529;DHT22;7351;51.194;4.098;2022-07-29T06:09:38;19.00;99.90
14529;DHT22;7351;51.194;4.098;2022-07-29T06:12:06;19.00;99.90
14529;DHT22;7351;51.194;4.098;2022-07-29T06:14:33;19.00;99.90
14529;DHT22;7351;51.194;4.098;2022-07-29T06:17:00;19.00;99.90
14529;DHT22;7351;51.194;4.098;2022-07-29T06:19:28;18.90;99.90
14529;DHT22;7351;51.194;4.098;2022-07-29T06:21:55;18.90;99.90
14529;DHT22;7351;51.194;4.098;2022-07-29T06:24:22;18.90;99.90
14529;DHT22;7351;51.194;4.098;2022-07-29T06:26:49;18.80;99.90
14529;DHT22;7351;51.194;4.098;2022-07-29T06:29:17;18.90;99.90
14529;DHT22;7351;51.194;4.098;2022-07-29T06:31:44;18.90;99.90
14529;DHT22;7351;51.194;4.098;2022-07-29T06:34:11;19.00;99.90
14529;DHT22;7351;51.194;4.098;2022-07-29T06:36:38;19.10;99.90
14529;DHT22;7351;51.194;4.098;2022-07-29T06:39:05;19.20;99.90
14529;DHT22;7351;51.194;4.098;2022-07-29T06:41:33;19.30;99.90
14529;DHT22;7351;51.194;4.098;2022-07-29T06:44:00;19.40;99.90
14529;DHT22;7351;51.194;4.098;2022-07-29T06:46:29;19.50;99.90
14529;DHT22;7351;51.194;4.098;2022-07-29T06:48:56;19.30;99.90
14529;DHT22;7351;51.194;4.098;2022-07-29T06:51:23;19.40;99.90
14529;DHT22;7351;51.194;4.098;2022-07-29T06:53:51;19.50;99.90
14529;DHT22;7351;51.194;4.098;2022-07-29T06:56:18;19.50;99.90
14529;DHT22;7351;51.194;4.098;2022-07-29T06:58:45;19.70;99.90
14529;DHT22;7351;51.194;4.098;2022-07-29T07:01:12;19.80;99.90
14529;DHT22;7351;51.194;4.098;2022-07-29T07:03:40;19.90;99.90
14529;DHT22;7351;51.194;4.098;2022-07-29T07:06:08;19.80;99.90
14529;DHT22;7351;51.194;4.098;2022-07-29T07:08:35;19.90;99.90
14529;DHT22;7351;51.194;4.098;2022-07-29T07:11:02;20.10;99.90
14529;DHT22;7351;51.194;4.098;2022-07-29T07:13:29;20.00;99.90
14529;DHT22;7351;51.194;4.098;2022-07-29T07:16:00;20.10;99.90
14529;DHT22;7351;51.194;4.098;2022-07-29T07:18:27;20.00;99.90
14529;DHT22;7351;51.194;4.098;2022-07-29T07:20:56;20.10;99.90
14529;DHT22;7351;51.194;4.098;2022-07-29T07:23:23;20.10;99.90
14529;DHT22;7351;51.194;4.098;2022-07-29T07:25:51;20.10;99.90
14529;DHT22;7351;51.194;4.098;2022-07-29T07:28:18;20.10;99.90
14529;DHT22;7351;51.194;4.098;2022-07-29T07:30:46;20.20;99.90
14529;DHT22;7351;51.194;4.098;2022-07-29T07:33:13;20.40;99.90
14529;DHT22;7351;51.194;4.098;2022-07-29T07:35:40;20.70;99.90
14529;DHT22;7351;51.194;4.098;2022-07-29T07:38:09;21.00;99.90
14529;DHT22;7351;51.194;4.098;2022-07-29T07:40:36;21.10;99.90
14529;DHT22;7351;51.194;4.098;2022-07-29T07:43:03;20.60;99.90
14529;DHT22;7351;51.194;4.098;2022-07-29T07:45:30;20.70;99.90
14529;DHT22;7351;51.194;4.098;2022-07-29T07:47:59;20.80;99.90
14529;DHT22;7351;51.194;4.098;2022-07-29T07:50:26;20.90;99.90
14529;DHT22;7351;51.194;4.098;2022-07-29T07:52:55;20.90;99.90
14529;DHT22;7351;51.194;4.098;2022-07-29T07:55:25;21.10;99.90
14529;DHT22;7351;51.194;4.098;2022-07-29T07:57:53;21.30;99.90
14529;DHT22;7351;51.194;4.098;2022-07-29T08:00:21;21.40;99.90
14529;DHT22;7351;51.194;4.098;2022-07-29T08:02:48;21.50;99.90
14529;DHT22;7351;51.194;4.098;2022-07-29T08:05:15;21.50;99.90
14529;DHT22;7351;51.194;4.098;2022-07-29T08:07:45;21.60;99.90
14529;DHT22;7351;51.194;4.098;2022-07-29T08:10:12;21.70;99.90
14529;DHT22;7351;51.194;4.098;2022-07-29T08:12:41;21.80;99.90
14529;DHT22;7351;51.194;4.098;2022-07-29T08:15:09;22.00;99.90
14529;DHT22;7351;51.194;4.098;2022-07-29T08:17:36;22.20;99.90
14529;DHT22;7351;51.194;4.098;2022-07-29T08:20:04;22.30;99.90
14529;DHT22;7351;51.194;4.098;2022-07-29T08:22:31;22.40;99.90
14529;DHT22;7351;51.194;4.098;2022-07-29T08:24:58;22.20;99.90
14529;DHT22;7351;51.194;4.098;2022-07-29T08:27:25;22.10;99.90
14529;DHT22;7351;51.194;4.098;2022-07-29T08:29:55;22.20;99.90
14529;DHT22;7351;51.194;4.098;2022-07-29T08:32:22;22.20;99.90
14529;DHT22;7351;51.194;4.098;2022-07-29T08:34:49;22.20;99.90
14529;DHT22;7351;51.194;4.098;2022-07-29T08:37:16;22.20;99.90
14529;DHT22;7351;51.194;4.098;2022-07-29T08:39:43;22.20;99.90
14529;DHT22;7351;51.194;4.098;2022-07-29T08:42:11;22.20;99.90
14529;DHT22;7351;51.194;4.098;2022-07-29T08:44:38;22.20;99.90
14529;DHT22;7351;51.194;4.098;2022-07-29T08:47:07;22.30;99.90
14529;DHT22;7351;51.194;4.098;2022-07-29T08:49:34;22.20;99.90
14529;DHT22;7351;51.194;4.098;2022-07-29T08:52:02;22.20;99.90
14529;DHT22;7351;51.194;4.098;2022-07-29T08:54:29;22.40;99.90
14529;DHT22;7351;51.194;4.098;2022-07-29T08:56:57;22.30;99.90
14529;DHT22;7351;51.194;4.098;2022-07-29T08:59:26;22.00;99.90
14529;DHT22;7351;51.194;4.098;2022-07-29T09:01:54;21.90;99.90
14529;DHT22;7351;51.194;4.098;2022-07-29T09:04:25;21.90;99.90
14529;DHT22;7351;51.194;4.098;2022-07-29T09:06:57;21.90;99.90
14529;DHT22;7351;51.194;4.098;2022-07-29T09:09:27;22.00;99.90
14529;DHT22;7351;51.194;4.098;2022-07-29T09:11:54;21.90;99.90
14529;DHT22;7351;51.194;4.098;2022-07-29T09:14:21;21.90;99.90
14529;DHT22;7351;51.194;4.098;2022-07-29T09:16:54;22.10;99.90
14529;DHT22;7351;51.194;4.098;2022-07-29T09:19:26;22.30;99.90
14529;DHT22;7351;51.194;4.098;2022-07-29T09:21:54;22.40;99.90
14529;DHT22;7351;51.194;4.098;2022-07-29T09:24:37;22.40;99.90
14529;DHT22;7351;51.194;4.098;2022-07-29T09:27:20;22.40;99.90
14529;DHT22;7351;51.194;4.098;2022-07-29T09:29:48;22.50;99.90
14529;DHT22;7351;51.194;4.098;2022-07-29T09:32:21;22.60;99.90
14529;DHT22;7351;51.194;4.098;2022-07-29T09:34:49;22.70;99.90
14529;DHT22;7351;51.194;4.098;2022-07-29T09:37:26;22.70;99.90
14529;DHT22;7351;51.194;4.098;2022-07-29T09:39:53;22.80;99.90
14529;DHT22;7351;51.194;4.098;2022-07-29T09:42:28;22.70;99.90
14529;DHT22;7351;51.194;4.098;2022-07-29T09:44:58;22.80;99.90
14529;DHT22;7351;51.194;4.098;2022-07-29T09:47:40;22.90;99.90
14529;DHT22;7351;51.194;4.098;2022-07-29T09:50:09;22.30;99.90
14529;DHT22;7351;51.194;4.098;2022-07-29T09:52:46;23.20;99.90
14529;DHT22;7351;51.194;4.098;2022-07-29T09:55:14;23.30;99.90
14529;DHT22;7351;51.194;4.098;2022-07-29T09:57:41;23.40;99.90
14529;DHT22;7351;51.194;4.098;2022-07-29T10:00:10;23.40;99.90
14529;DHT22;7351;51.194;4.098;2022-07-29T10:02:39;23.20;99.90
14529;DHT22;7351;51.194;4.098;2022-07-29T10:05:18;23.30;99.90
14529;DHT22;7351;51.194;4.098;2022-07-29T10:07:47;23.40;99.90
14529;DHT22;7351;51.194;4.098;2022-07-29T10:10:22;23.30;99.90
14529;DHT22;7351;51.194;4.098;2022-07-29T10:12:54;23.40;99.90
14529;DHT22;7351;51.194;4.098;2022-07-29T10:15:23;23.50;99.90
14529;DHT22;7351;51.194;4.098;2022-07-29T10:17:51;23.30;99.90
14529;DHT22;7351;51.194;4.098;2022-07-29T10:20:20;23.30;99.90
14529;DHT22;7351;51.194;4.098;2022-07-29T10:22:48;23.40;99.90
14529;DHT22;7351;51.194;4.098;2022-07-29T10:25:17;23.50;99.90
14529;DHT22;7351;51.194;4.098;2022-07-29T10:27:45;23.70;99.90
14529;DHT22;7351;51.194;4.098;2022-07-29T10:30:14;23.80;99.90
14529;DHT22;7351;51.194;4.098;2022-07-29T10:32:54;23.70;99.90
14529;DHT22;7351;51.194;4.098;2022-07-29T10:35:39;23.60;99.90
14529;DHT22;7351;51.194;4.098;2022-07-29T10:38:34;23.80;99.90
14529;DHT22;7351;51.194;4.098;2022-07-29T10:41:17;23.80;99.90
14529;DHT22;7351;51.194;4.098;2022-07-29T10:43:56;23.90;99.90
14529;DHT22;7351;51.194;4.098;2022-07-29T10:46:25;23.80;99.90
14529;DHT22;7351;51.194;4.098;2022-07-29T10:49:09;23.70;99.90
14529;DHT22;7351;51.194;4.098;2022-07-29T10:52:04;23.60;99.90
14529;DHT22;7351;51.194;4.098;2022-07-29T10:54:45;23.80;99.90
14529;DHT22;7351;51.194;4.098;2022-07-29T10:57:33;24.00;99.90
14529;DHT22;7351;51.194;4.098;2022-07-29T11:00:28;24.30;99.90
14529;DHT22;7351;51.194;4.098;2022-07-29T11:02:56;24.30;99.90
14529;DHT22;7351;51.194;4.098;2022-07-29T11:05:24;24.20;99.90
14529;DHT22;7351;51.194;4.098;2022-07-29T11:08:19;24.20;99.90
14529;DHT22;7351;51.194;4.098;2022-07-29T11:10:49;24.30;99.90
14529;DHT22;7351;51.194;4.098;2022-07-29T11:13:48;24.50;99.90
14529;DHT22;7351;51.194;4.098;2022-07-29T11:16:17;24.60;99.90
14529;DHT22;7351;51.194;4.098;2022-07-29T11:19:19;24.70;99.90
14529;DHT22;7351;51.194;4.098;2022-07-29T11:21:46;24.80;99.90
14529;DHT22;7351;51.194;4.098;2022-07-29T11:24:18;24.80;99.90
14529;DHT22;7351;51.194;4.098;2022-07-29T11:27:12;24.80;99.90
14529;DHT22;7351;51.194;4.098;2022-07-29T11:29:49;24.80;99.90
14529;DHT22;7351;51.194;4.098;2022-07-29T11:32:17;24.80;99.90
14529;DHT22;7351;51.194;4.098;2022-07-29T11:34:45;24.70;99.90
14529;DHT22;7351;51.194;4.098;2022-07-29T11:37:20;24.70;99.90
14529;DHT22;7351;51.194;4.098;2022-07-29T11:40:13;24.50;99.90
14529;DHT22;7351;51.194;4.098;2022-07-29T11:42:45;24.50;99.90
14529;DHT22;7351;51.194;4.098;2022-07-29T11:45:14;24.60;99.90
14529;DHT22;7351;51.194;4.098;2022-07-29T11:47:48;24.70;99.90
14529;DHT22;7351;51.194;4.098;2022-07-29T11:50:17;24.60;99.90
14529;DHT22;7351;51.194;4.098;2022-07-29T11:52:45;24.60;99.90
14529;DHT22;7351;51.194;4.098;2022-07-29T11:55:15;24.70;99.90
14529;DHT22;7351;51.194;4.098;2022-07-29T11:57:46;24.80;99.90
14529;DHT22;7351;51.194;4.098;2022-07-29T12:00:29;24.90;99.90
14529;DHT22;7351;51.194;4.098;2022-07-29T12:02:57;24.80;99.90
14529;DHT22;7351;51.194;4.098;2022-07-29T12:05:36;24.90;99.90
14529;DHT22;7351;51.194;4.098;2022-07-29T12:08:07;24.80;99.90
14529;DHT22;7351;51.194;4.098;2022-07-29T12:10:36;24.70;99.70
14529;DHT22;7351;51.194;4.098;2022-07-29T12:13:04;24.80;99.90
14529;DHT22;7351;51.194;4.098;2022-07-29T12:15:31;25.00;99.30
14529;DHT22;7351;51.194;4.098;2022-07-29T12:17:58;25.10;99.60
14529;DHT22;7351;51.194;4.098;2022-07-29T12:20:26;25.00;99.80
14529;DHT22;7351;51.194;4.098;2022-07-29T12:22:56;23.90;98.40
14529;DHT22;7351;51.194;4.098;2022-07-29T12:25:23;25.00;99.40
14529;DHT22;7351;51.194;4.098;2022-07-29T12:28:10;23.70;99.00
14529;DHT22;7351;51.194;4.098;2022-07-29T12:30:43;25.10;98.70
14529;DHT22;7351;51.194;4.098;2022-07-29T12:33:12;25.20;98.40
14529;DHT22;7351;51.194;4.098;2022-07-29T12:35:39;25.30;98.20
14529;DHT22;7351;51.194;4.098;2022-07-29T12:38:09;25.20;97.80
14529;DHT22;7351;51.194;4.098;2022-07-29T12:40:36;25.30;98.10
14529;DHT22;7351;51.194;4.098;2022-07-29T12:43:09;25.30;97.00
14529;DHT22;7351;51.194;4.098;2022-07-29T12:45:37;25.20;97.30
14529;DHT22;7351;51.194;4.098;2022-07-29T12:48:05;25.20;97.50
14529;DHT22;7351;51.194;4.098;2022-07-29T12:50:34;25.30;97.60
14529;DHT22;7351;51.194;4.098;2022-07-29T12:53:11;25.40;97.40
14529;DHT22;7351;51.194;4.098;2022-07-29T12:55:40;25.50;97.60
14529;DHT22;7351;51.194;4.098;2022-07-29T12:58:09;25.60;97.20
14529;DHT22;7351;51.194;4.098;2022-07-29T13:00:36;25.60;97.30
14529;DHT22;7351;51.194;4.098;2022-07-29T13:03:03;25.70;96.80
14529;DHT22;7351;51.194;4.098;2022-07-29T13:05:41;25.80;97.70
14529;DHT22;7351;51.194;4.098;2022-07-29T13:08:12;25.90;96.80
14529;DHT22;7351;51.194;4.098;2022-07-29T13:10:40;25.70;96.00
14529;DHT22;7351;51.194;4.098;2022-07-29T13:13:10;25.60;96.70
14529;DHT22;7351;51.194;4.098;2022-07-29T13:15:38;25.40;97.20
14529;DHT22;7351;51.194;4.098;2022-07-29T13:18:26;25.40;96.80
14529;DHT22;7351;51.194;4.098;2022-07-29T13:20:54;25.60;97.20
14529;DHT22;7351;51.194;4.098;2022-07-29T13:23:21;25.50;96.80
14529;DHT22;7351;51.194;4.098;2022-07-29T13:25:48;25.40;96.50
14529;DHT22;7351;51.194;4.098;2022-07-29T13:28:17;25.40;97.40
14529;DHT22;7351;51.194;4.098;2022-07-29T13:30:44;25.50;97.10
14529;DHT22;7351;51.194;4.098;2022-07-29T13:33:11;25.40;96.90
14529;DHT22;7351;51.194;4.098;2022-07-29T13:35:38;25.30;97.20
14529;DHT22;7351;51.194;4.098;2022-07-29T13:38:05;25.40;97.30
14529;DHT22;7351;51.194;4.098;2022-07-29T13:40:32;25.40;97.00
14529;DHT22;7351;51.194;4.098;2022-07-29T13:43:00;25.40;97.50
14529;DHT22;7351;51.194;4.098;2022-07-29T13:45:29;25.40;97.50
14529;DHT22;7351;51.194;4.098;2022-07-29T13:47:56;25.30;97.20
14529;DHT22;7351;51.194;4.098;2022-07-29T13:50:23;25.40;97.70
14529;DHT22;7351;51.194;4.098;2022-07-29T13:52:50;25.60;97.80
14529;DHT22;7351;51.194;4.098;2022-07-29T13:55:17;25.50;98.20
14529;DHT22;7351;51.194;4.098;2022-07-29T13:57:44;25.70;97.50
14529;DHT22;7351;51.194;4.098;2022-07-29T14:00:12;25.50;96.90
14529;DHT22;7351;51.194;4.098;2022-07-29T14:02:40;25.30;97.00
14529;DHT22;7351;51.194;4.098;2022-07-29T14:05:08;25.20;97.30
14529;DHT22;7351;51.194;4.098;2022-07-29T14:07:36;25.10;97.10
14529;DHT22;7351;51.194;4.098;2022-07-29T14:10:05;25.00;97.10
14529;DHT22;7351;51.194;4.098;2022-07-29T14:12:32;25.20;97.70
14529;DHT22;7351;51.194;4.098;2022-07-29T14:14:59;25.20;97.10
14529;DHT22;7351;51.194;4.098;2022-07-29T14:17:26;25.40;96.60
14529;DHT22;7351;51.194;4.098;2022-07-29T14:19:54;25.40;97.10
14529;DHT22;7351;51.194;4.098;2022-07-29T14:22:22;25.50;96.90
14529;DHT22;7351;51.194;4.098;2022-07-29T14:24:50;25.40;97.00
14529;DHT22;7351;51.194;4.098;2022-07-29T14:27:17;25.60;97.00
14529;DHT22;7351;51.194;4.098;2022-07-29T14:29:44;25.70;97.00
14529;DHT22;7351;51.194;4.098;2022-07-29T14:32:11;25.90;97.20
14529;DHT22;7351;51.194;4.098;2022-07-29T14:34:40;26.00;96.80
14529;DHT22;7351;51.194;4.098;2022-07-29T14:37:08;25.90;95.90
14529;DHT22;7351;51.194;4.098;2022-07-29T14:39:35;25.70;96.40
14529;DHT22;7351;51.194;4.098;2022-07-29T14:42:03;25.70;96.10
14529;DHT22;7351;51.194;4.098;2022-07-29T14:44:30;25.70;96.40
14529;DHT22;7351;51.194;4.098;2022-07-29T14:46:57;25.60;96.20
14529;DHT22;7351;51.194;4.098;2022-07-29T14:49:25;25.50;96.00
14529;DHT22;7351;51.194;4.098;2022-07-29T14:51:52;25.40;96.00
14529;DHT22;7351;51.194;4.098;2022-07-29T14:54:20;25.60;97.00
14529;DHT22;7351;51.194;4.098;2022-07-29T14:56:47;25.80;96.70
14529;DHT22;7351;51.194;4.098;2022-07-29T14:59:16;25.70;96.50
14529;DHT22;7351;51.194;4.098;2022-07-29T15:01:44;25.60;96.80
14529;DHT22;7351;51.194;4.098;2022-07-29T15:04:11;25.70;97.00
14529;DHT22;7351;51.194;4.098;2022-07-29T15:06:38;25.80;96.70
14529;DHT22;7351;51.194;4.098;2022-07-29T15:09:05;25.80;96.20
14529;DHT22;7351;51.194;4.098;2022-07-29T15:11:34;25.90;96.40
14529;DHT22;7351;51.194;4.098;2022-07-29T15:14:00;25.70;96.80
14529;DHT22;7351;51.194;4.098;2022-07-29T15:16:27;25.60;96.60
14529;DHT22;7351;51.194;4.098;2022-07-29T15:18:54;25.60;96.60
14529;DHT22;7351;51.194;4.098;2022-07-29T15:21:23;25.60;96.80
14529;DHT22;7351;51.194;4.098;2022-07-29T15:23:50;25.60;97.20
14529;DHT22;7351;51.194;4.098;2022-07-29T15:26:17;25.70;96.60
14529;DHT22;7351;51.194;4.098;2022-07-29T15:28:46;25.60;97.00
14529;DHT22;7351;51.194;4.098;2022-07-29T15:31:13;25.60;97.00
14529;DHT22;7351;51.194;4.098;2022-07-29T15:33:40;25.70;96.50
14529;DHT22;7351;51.194;4.098;2022-07-29T15:36:07;25.60;97.00
14529;DHT22;7351;51.194;4.098;2022-07-29T15:38:34;25.50;96.50
14529;DHT22;7351;51.194;4.098;2022-07-29T15:41:01;25.50;96.60
14529;DHT22;7351;51.194;4.098;2022-07-29T15:43:28;25.70;97.00
14529;DHT22;7351;51.194;4.098;2022-07-29T15:45:56;25.80;96.80
14529;DHT22;7351;51.194;4.098;2022-07-29T15:48:40;25.80;96.20
14529;DHT22;7351;51.194;4.098;2022-07-29T15:51:07;25.80;96.10
14529;DHT22;7351;51.194;4.098;2022-07-29T15:53:34;25.70;96.20
14529;DHT22;7351;51.194;4.098;2022-07-29T15:56:01;25.70;96.70
14529;DHT22;7351;51.194;4.098;2022-07-29T15:58:28;25.70;96.50
14529;DHT22;7351;51.194;4.098;2022-07-29T16:00:56;25.70;96.20
14529;DHT22;7351;51.194;4.098;2022-07-29T16:03:23;25.40;96.60